sensor_id;sensor_type;location;lat;lon;timestamp;temperature;humidity
11122;DHT22;5615;49.304;10.576;2023-03-19T00:00:06;7.90;99.90
11122;DHT22;5615;49.304;10.576;2023-03-19T00:02:36;7.90;99.90
11122;DHT22;5615;49.304;10.576;2023-03-19T00:05:03;7.90;99.90
11122;DHT22;5615;49.304;10.576;2023-03-19T00:07:30;7.90;99.90
11122;DHT22;5615;49.304;10.576;2023-03-19T00:09:56;7.90;99.90
11122;DHT22;5615;49.304;10.576;2023-03-19T00:12:23;7.90;99.90
11122;DHT22;5615;49.304;10.576;2023-03-19T00:14:50;7.90;99.90
11122;DHT22;5615;49.304;10.576;2023-03-19T00:17:16;7.80;99.90
11122;DHT22;5615;49.304;10.576;2023-03-19T00:19:44;7.90;99.90
11122;DHT22;5615;49.304;10.576;2023-03-19T00:22:11;7.90;99.90
11122;DHT22;5615;49.304;10.576;2023-03-19T00:24:37;7.90;99.90
11122;DHT22;5615;49.304;10.576;2023-03-19T00:27:04;7.90;99.90
11122;DHT22;5615;49.304;10.576;2023-03-19T00:29:31;7.90;99.90
11122;DHT22;5615;49.304;10.576;2023-03-19T00:31:57;7.80;99.90
11122;DHT22;5615;49.304;10.576;2023-03-19T00:34:24;7.80;99.90
11122;DHT22;5615;49.304;10.576;2023-03-19T00:36:52;7.60;99.90
11122;DHT22;5615;49.304;10.576;2023-03-19T00:39:20;7.60;99.90
11122;DHT22;5615;49.304;10.576;2023-03-19T00:41:47;7.60;99.90
11122;DHT22;5615;49.304;10.576;2023-03-19T00:44:15;7.50;99.90
11122;DHT22;5615;49.304;10.576;2023-03-19T00:46:42;7.40;99.90
11122;DHT22;5615;49.304;10.576;2023-03-19T00:49:09;7.30;99.90
11122;DHT22;5615;49.304;10.576;2023-03-19T00:51:35;7.30;99.90
11122;DHT22;5615;49.304;10.576;2023-03-19T00:54:03;7.20;99.90
11122;DHT22;5615;49.304;10.576;2023-03-19T00:56:30;7.30;99.90
11122;DHT22;5615;49.304;10.576;2023-03-19T00:58:57;7.20;99.90
11122;DHT22;5615;49.304;10.576;2023-03-19T01:01:23;7.20;99.90
11122;DHT22;5615;49.304;10.576;2023-03-19T01:03:50;7.20;99.90
11122;DHT22;5615;49.304;10.576;2023-03-19T01:06:17;7.20;99.90
11122;DHT22;5615;49.304;10.576;2023-03-19T01:08:44;7.20;99.90
11122;DHT22;5615;49.304;10.576;2023-03-19T01:11:13;7.10;99.90
11122;DHT22;5615;49.304;10.576;2023-03-19T01:13:41;7.10;99.90
11122;DHT22;5615;49.304;10.576;2023-03-19T01:16:08;7.10;99.90
11122;DHT22;5615;49.304;10.576;2023-03-19T01:18:36;7.10;99.90
11122;DHT22;5615;49.304;10.576;2023-03-19T01:21:03;7.20;99.90
11122;DHT22;5615;49.304;10.576;2023-03-19T01:23:30;7.10;99.90
11122;DHT22;5615;49.304;10.576;2023-03-19T01:25:57;6.90;99.90
11122;DHT22;5615;49.304;10.576;2023-03-19T01:28:25;7.00;99.90
11122;DHT22;5615;49.304;10.576;2023-03-19T01:30:51;7.00;99.90
11122;DHT22;5615;49.304;10.576;2023-03-19T01:33:18;7.00;99.90
11122;DHT22;5615;49.304;10.576;2023-03-19T01:35:45;6.90;99.90
11122;DHT22;5615;49.304;10.576;2023-03-19T01:38:13;6.80;99.90
11122;DHT22;5615;49.304;10.576;2023-03-19T01:40:43;6.70;99.90
11122;DHT22;5615;49.304;10.576;2023-03-19T01:43:15;6.70;99.90
11122;DHT22;5615;49.304;10.576;2023-03-19T01:45:45;6.90;99.90
11122;DHT22;5615;49.304;10.576;2023-03-19T01:48:19;7.00;99.90
11122;DHT22;5615;49.304;10.576;2023-03-19T01:50:47;6.80;99.90
11122;DHT22;5615;49.304;10.576;2023-03-19T01:53:20;6.80;99.90
11122;DHT22;5615;49.304;10.576;2023-03-19T01:55:48;6.80;99.90
11122;DHT22;5615;49.304;10.576;2023-03-19T01:58:16;6.80;99.90
11122;DHT22;5615;49.304;10.576;2023-03-19T02:00:44;6.70;99.90
11122;DHT22;5615;49.304;10.576;2023-03-19T02:03:12;6.80;99.90
11122;DHT22;5615;49.304;10.576;2023-03-19T02:05:40;6.80;99.90
11122;DHT22;5615;49.304;10.576;2023-03-19T02:08:11;6.80;99.90
11122;DHT22;5615;49.304;10.576;2023-03-19T02:10:39;6.80;99.90
11122;DHT22;5615;49.304;10.576;2023-03-19T02:13:06;6.90;99.90
11122;DHT22;5615;49.304;10.576;2023-03-19T02:15:33;7.00;99.90
11122;DHT22;5615;49.304;10.576;2023-03-19T02:18:01;7.00;99.90
11122;DHT22;5615;49.304;10.576;2023-03-19T02:20:31;7.00;99.90
11122;DHT22;5615;49.304;10.576;2023-03-19T02:23:06;7.00;99.90
11122;DHT22;5615;49.304;10.576;2023-03-19T02:25:38;7.00;99.90
11122;DHT22;5615;49.304;10.576;2023-03-19T02:28:08;6.90;99.90
11122;DHT22;5615;49.304;10.576;2023-03-19T02:30:36;7.00;99.90
11122;DHT22;5615;49.304;10.576;2023-03-19T02:33:03;7.00;99.90
11122;DHT22;5615;49.304;10.576;2023-03-19T02:35:32;7.10;99.90
11122;DHT22;5615;49.304;10.576;2023-03-19T02:38:00;7.10;99.90
11122;DHT22;5615;49.304;10.576;2023-03-19T02:40:30;7.00;99.90
11122;DHT22;5615;49.304;10.576;2023-03-19T02:42:59;7.00;99.90
11122;DHT22;5615;49.304;10.576;2023-03-19T02:45:29;7.00;99.90
11122;DHT22;5615;49.304;10.576;2023-03-19T02:47:57;6.90;99.90
11122;DHT22;5615;49.304;10.576;2023-03-19T02:50:23;6.90;99.90
11122;DHT22;5615;49.304;10.576;2023-03-19T02:52:50;6.80;99.90
11122;DHT22;5615;49.304;10.576;2023-03-19T02:55:17;6.90;99.90
11122;DHT22;5615;49.304;10.576;2023-03-19T02:57:43;7.00;99.90
11122;DHT22;5615;49.304;10.576;2023-03-19T03:00:11;7.00;99.90
11122;DHT22;5615;49.304;10.576;2023-03-19T03:02:39;7.10;99.90
11122;DHT22;5615;49.304;10.576;2023-03-19T03:05:06;7.10;99.90
11122;DHT22;5615;49.304;10.576;2023-03-19T03:07:33;7.00;99.90
11122;DHT22;5615;49.304;10.576;2023-03-19T03:10:00;6.80;99.90
11122;DHT22;5615;49.304;10.576;2023-03-19T03:12:27;6.80;99.90
11122;DHT22;5615;49.304;10.576;2023-03-19T03:14:53;6.70;99.90
11122;DHT22;5615;49.304;10.576;2023-03-19T03:17:20;6.70;99.90
11122;DHT22;5615;49.304;10.576;2023-03-19T03:19:48;6.70;99.90
11122;DHT22;5615;49.304;10.576;2023-03-19T03:22:15;6.70;99.90
11122;DHT22;5615;49.304;10.576;2023-03-19T03:24:41;6.70;99.90
11122;DHT22;5615;49.304;10.576;2023-03-19T03:27:08;6.70;99.90
11122;DHT22;5615;49.304;10.576;2023-03-19T03:29:35;6.80;99.90
11122;DHT22;5615;49.304;10.576;2023-03-19T03:32:02;6.90;99.90
11122;DHT22;5615;49.304;10.576;2023-03-19T03:34:28;6.90;99.90
11122;DHT22;5615;49.304;10.576;2023-03-19T03:36:56;6.90;99.90
11122;DHT22;5615;49.304;10.576;2023-03-19T03:39:23;7.00;99.90
11122;DHT22;5615;49.304;10.576;2023-03-19T03:41:49;7.00;99.90
11122;DHT22;5615;49.304;10.576;2023-03-19T03:44:16;7.00;99.90
11122;DHT22;5615;49.304;10.576;2023-03-19T03:46:43;7.00;99.90
11122;DHT22;5615;49.304;10.576;2023-03-19T03:49:10;7.00;99.90
11122;DHT22;5615;49.304;10.576;2023-03-19T03:51:36;7.00;99.90
11122;DHT22;5615;49.304;10.576;2023-03-19T03:54:04;7.00;99.90
11122;DHT22;5615;49.304;10.576;2023-03-19T03:56:31;7.00;99.90
11122;DHT22;5615;49.304;10.576;2023-03-19T03:58:59;7.00;99.90
11122;DHT22;5615;49.304;10.576;2023-03-19T04:01:26;7.10;99.90
11122;DHT22;5615;49.304;10.576;2023-03-19T04:03:53;7.10;99.90
11122;DHT22;5615;49.304;10.576;2023-03-19T04:06:21;7.20;99.90
11122;DHT22;5615;49.304;10.576;2023-03-19T04:08:49;7.10;99.90
11122;DHT22;5615;49.304;10.576;2023-03-19T04:11:17;7.10;99.90
11122;DHT22;5615;49.304;10.576;2023-03-19T04:13:44;7.10;99.90
11122;DHT22;5615;49.304;10.576;2023-03-19T04:16:11;7.10;99.90
11122;DHT22;5615;49.304;10.576;2023-03-19T04:18:38;7.10;99.90
11122;DHT22;5615;49.304;10.576;2023-03-19T04:21:05;7.10;99.90
11122;DHT22;5615;49.304;10.576;2023-03-19T04:23:32;7.10;99.90
11122;DHT22;5615;49.304;10.576;2023-03-19T04:25:59;7.00;99.90
11122;DHT22;5615;49.304;10.576;2023-03-19T04:28:28;7.00;99.90
11122;DHT22;5615;49.304;10.576;2023-03-19T04:30:58;7.10;99.90
11122;DHT22;5615;49.304;10.576;2023-03-19T04:33:25;7.10;99.90
11122;DHT22;5615;49.304;10.576;2023-03-19T04:35:51;7.20;99.90
11122;DHT22;5615;49.304;10.576;2023-03-19T04:38:18;7.20;99.90
11122;DHT22;5615;49.304;10.576;2023-03-19T04:40:46;7.30;99.90
11122;DHT22;5615;49.304;10.576;2023-03-19T04:43:12;7.40;99.90
11122;DHT22;5615;49.304;10.576;2023-03-19T04:45:41;7.60;99.90
11122;DHT22;5615;49.304;10.576;2023-03-19T04:48:07;7.70;99.90
11122;DHT22;5615;49.304;10.576;2023-03-19T04:50:34;7.70;99.90
11122;DHT22;5615;49.304;10.576;2023-03-19T04:53:01;7.70;99.90
11122;DHT22;5615;49.304;10.576;2023-03-19T04:55:28;7.60;99.90
11122;DHT22;5615;49.304;10.576;2023-03-19T04:57:54;7.60;99.90
11122;DHT22;5615;49.304;10.576;2023-03-19T05:00:21;7.70;99.90
11122;DHT22;5615;49.304;10.576;2023-03-19T05:02:49;7.70;99.90
11122;DHT22;5615;49.304;10.576;2023-03-19T05:05:16;7.70;99.90
11122;DHT22;5615;49.304;10.576;2023-03-19T05:07:42;7.70;99.90
11122;DHT22;5615;49.304;10.576;2023-03-19T05:10:10;7.70;99.90
11122;DHT22;5615;49.304;10.576;2023-03-19T05:12:37;7.70;99.90
11122;DHT22;5615;49.304;10.576;2023-03-19T05:15:05;7.70;99.90
11122;DHT22;5615;49.304;10.576;2023-03-19T05:17:31;7.90;99.90
11122;DHT22;5615;49.304;10.576;2023-03-19T05:20:01;7.90;99.90
11122;DHT22;5615;49.304;10.576;2023-03-19T05:22:29;8.00;99.90
11122;DHT22;5615;49.304;10.576;2023-03-19T05:24:56;7.90;99.90
11122;DHT22;5615;49.304;10.576;2023-03-19T05:27:23;8.00;99.90
11122;DHT22;5615;49.304;10.576;2023-03-19T05:29:50;8.00;99.90
11122;DHT22;5615;49.304;10.576;2023-03-19T05:32:17;8.10;99.90
11122;DHT22;5615;49.304;10.576;2023-03-19T05:34:43;8.10;99.90
11122;DHT22;5615;49.304;10.576;2023-03-19T05:37:11;8.20;99.90
11122;DHT22;5615;49.304;10.576;2023-03-19T05:39:38;8.30;99.90
11122;DHT22;5615;49.304;10.576;2023-03-19T05:42:05;8.20;99.90
11122;DHT22;5615;49.304;10.576;2023-03-19T05:44:31;8.30;99.90
11122;DHT22;5615;49.304;10.576;2023-03-19T05:46:58;8.30;99.90
11122;DHT22;5615;49.304;10.576;2023-03-19T05:49:25;8.30;99.90
11122;DHT22;5615;49.304;10.576;2023-03-19T05:51:51;8.30;99.90
11122;DHT22;5615;49.304;10.576;2023-03-19T05:54:19;8.30;99.90
11122;DHT22;5615;49.304;10.576;2023-03-19T05:56:46;8.40;99.90
11122;DHT22;5615;49.304;10.576;2023-03-19T05:59:12;8.30;99.90
11122;DHT22;5615;49.304;10.576;2023-03-19T06:01:39;8.40;99.90
11122;DHT22;5615;49.304;10.576;2023-03-19T06:04:06;8.40;99.90
11122;DHT22;5615;49.304;10.576;2023-03-19T06:06:32;8.40;99.90
11122;DHT22;5615;49.304;10.576;2023-03-19T06:08:59;8.40;99.90
11122;DHT22;5615;49.304;10.576;2023-03-19T06:11:27;8.50;99.90
11122;DHT22;5615;49.304;10.576;2023-03-19T06:13:54;8.50;99.90
11122;DHT22;5615;49.304;10.576;2023-03-19T06:16:20;8.50;99.90
11122;DHT22;5615;49.304;10.576;2023-03-19T06:18:47;8.50;99.90
11122;DHT22;5615;49.304;10.576;2023-03-19T06:21:14;8.50;99.90
11122;DHT22;5615;49.304;10.576;2023-03-19T06:23:40;8.50;99.90
11122;DHT22;5615;49.304;10.576;2023-03-19T06:26:07;8.50;99.90
11122;DHT22;5615;49.304;10.576;2023-03-19T06:28:35;8.50;99.90
11122;DHT22;5615;49.304;10.576;2023-03-19T06:31:02;8.60;99.90
11122;DHT22;5615;49.304;10.576;2023-03-19T06:33:29;8.60;99.90
11122;DHT22;5615;49.304;10.576;2023-03-19T06:35:56;8.60;99.90
11122;DHT22;5615;49.304;10.576;2023-03-19T06:38:23;8.60;99.90
11122;DHT22;5615;49.304;10.576;2023-03-19T06:40:50;8.60;99.90
11122;DHT22;5615;49.304;10.576;2023-03-19T06:43:17;8.60;99.90
11122;DHT22;5615;49.304;10.576;2023-03-19T06:45:45;8.60;99.90
11122;DHT22;5615;49.304;10.576;2023-03-19T06:48:12;8.60;99.90
11122;DHT22;5615;49.304;10.576;2023-03-19T06:50:39;8.50;99.90
11122;DHT22;5615;49.304;10.576;2023-03-19T06:53:05;8.60;99.90
11122;DHT22;5615;49.304;10.576;2023-03-19T06:55:32;8.50;99.90
11122;DHT22;5615;49.304;10.576;2023-03-19T06:57:59;8.50;99.90
11122;DHT22;5615;49.304;10.576;2023-03-19T07:00:25;8.50;99.90
11122;DHT22;5615;49.304;10.576;2023-03-19T07:02:53;8.50;99.90
11122;DHT22;5615;49.304;10.576;2023-03-19T07:05:20;8.40;99.90
11122;DHT22;5615;49.304;10.576;2023-03-19T07:07:47;8.40;99.90
11122;DHT22;5615;49.304;10.576;2023-03-19T07:12:40;8.50;99.90
11122;DHT22;5615;49.304;10.576;2023-03-19T07:15:07;8.50;99.90
11122;DHT22;5615;49.304;10.576;2023-03-19T07:17:34;8.40;99.90
11122;DHT22;5615;49.304;10.576;2023-03-19T07:20:02;8.50;99.90
11122;DHT22;5615;49.304;10.576;2023-03-19T07:22:29;8.50;99.90
11122;DHT22;5615;49.304;10.576;2023-03-19T07:24:55;8.50;99.90
11122;DHT22;5615;49.304;10.576;2023-03-19T07:27:22;8.50;99.90
11122;DHT22;5615;49.304;10.576;2023-03-19T07:29:49;8.50;99.90
11122;DHT22;5615;49.304;10.576;2023-03-19T07:32:15;8.50;99.90
11122;DHT22;5615;49.304;10.576;2023-03-19T07:34:42;8.50;99.90
11122;DHT22;5615;49.304;10.576;2023-03-19T07:37:10;8.50;99.90
11122;DHT22;5615;49.304;10.576;2023-03-19T07:39:36;8.40;99.90
11122;DHT22;5615;49.304;10.576;2023-03-19T07:42:03;8.40;99.90
11122;DHT22;5615;49.304;10.576;2023-03-19T07:44:30;8.40;99.90
11122;DHT22;5615;49.304;10.576;2023-03-19T07:46:57;8.40;99.90
11122;DHT22;5615;49.304;10.576;2023-03-19T07:49:24;8.40;99.90
11122;DHT22;5615;49.304;10.576;2023-03-19T07:51:50;8.30;99.90
11122;DHT22;5615;49.304;10.576;2023-03-19T07:54:18;8.10;99.90
11122;DHT22;5615;49.304;10.576;2023-03-19T07:56:45;8.10;99.90
11122;DHT22;5615;49.304;10.576;2023-03-19T07:59:12;8.00;99.90
11122;DHT22;5615;49.304;10.576;2023-03-19T08:01:38;8.00;99.90
11122;DHT22;5615;49.304;10.576;2023-03-19T08:04:05;7.90;99.90
11122;DHT22;5615;49.304;10.576;2023-03-19T08:06:32;8.00;99.90
11122;DHT22;5615;49.304;10.576;2023-03-19T08:08:59;8.00;99.90
11122;DHT22;5615;49.304;10.576;2023-03-19T08:11:27;8.10;99.90
11122;DHT22;5615;49.304;10.576;2023-03-19T08:13:54;8.10;99.90
11122;DHT22;5615;49.304;10.576;2023-03-19T08:16:21;8.10;99.90
11122;DHT22;5615;49.304;10.576;2023-03-19T08:18:47;8.10;99.90
11122;DHT22;5615;49.304;10.576;2023-03-19T08:21:14;8.10;99.90
11122;DHT22;5615;49.304;10.576;2023-03-19T08:23:40;8.10;99.90
11122;DHT22;5615;49.304;10.576;2023-03-19T08:26:07;8.10;99.90
11122;DHT22;5615;49.304;10.576;2023-03-19T08:28:35;8.20;99.90
11122;DHT22;5615;49.304;10.576;2023-03-19T08:31:07;8.20;99.90
11122;DHT22;5615;49.304;10.576;2023-03-19T08:33:34;8.30;99.90
11122;DHT22;5615;49.304;10.576;2023-03-19T08:36:06;8.40;99.90
11122;DHT22;5615;49.304;10.576;2023-03-19T08:38:32;8.50;99.90
11122;DHT22;5615;49.304;10.576;2023-03-19T08:40:59;8.60;99.90
11122;DHT22;5615;49.304;10.576;2023-03-19T08:43:28;8.70;99.90
11122;DHT22;5615;49.304;10.576;2023-03-19T08:45:56;8.70;99.90
11122;DHT22;5615;49.304;10.576;2023-03-19T08:48:23;8.70;99.90
11122;DHT22;5615;49.304;10.576;2023-03-19T08:50:52;8.90;99.90
11122;DHT22;5615;49.304;10.576;2023-03-19T08:53:19;9.00;99.90
11122;DHT22;5615;49.304;10.576;2023-03-19T08:55:50;9.10;99.90
11122;DHT22;5615;49.304;10.576;2023-03-19T08:58:18;9.30;99.90
11122;DHT22;5615;49.304;10.576;2023-03-19T09:00:44;9.40;99.90
11122;DHT22;5615;49.304;10.576;2023-03-19T09:03:12;9.40;99.90
11122;DHT22;5615;49.304;10.576;2023-03-19T09:05:39;9.40;99.90
11122;DHT22;5615;49.304;10.576;2023-03-19T09:08:06;9.50;99.90
11122;DHT22;5615;49.304;10.576;2023-03-19T09:10:33;9.30;99.90
11122;DHT22;5615;49.304;10.576;2023-03-19T09:12:59;9.10;99.90
11122;DHT22;5615;49.304;10.576;2023-03-19T09:15:26;9.20;99.90
11122;DHT22;5615;49.304;10.576;2023-03-19T09:17:53;9.00;99.90
11122;DHT22;5615;49.304;10.576;2023-03-19T09:20:21;9.00;99.90
11122;DHT22;5615;49.304;10.576;2023-03-19T09:22:48;8.90;99.90
11122;DHT22;5615;49.304;10.576;2023-03-19T09:25:14;9.00;99.90
11122;DHT22;5615;49.304;10.576;2023-03-19T09:27:41;9.30;99.90
11122;DHT22;5615;49.304;10.576;2023-03-19T09:30:09;9.50;99.90
11122;DHT22;5615;49.304;10.576;2023-03-19T09:32:36;9.70;99.90
11122;DHT22;5615;49.304;10.576;2023-03-19T09:35:03;9.90;99.90
11122;DHT22;5615;49.304;10.576;2023-03-19T09:37:31;10.00;99.90
11122;DHT22;5615;49.304;10.576;2023-03-19T09:39:57;10.10;99.90
11122;DHT22;5615;49.304;10.576;2023-03-19T09:42:37;10.10;99.90
11122;DHT22;5615;49.304;10.576;2023-03-19T09:45:12;10.40;99.90
11122;DHT22;5615;49.304;10.576;2023-03-19T09:47:39;10.50;99.90
11122;DHT22;5615;49.304;10.576;2023-03-19T09:50:11;10.70;99.90
11122;DHT22;5615;49.304;10.576;2023-03-19T09:52:43;11.00;99.90
11122;DHT22;5615;49.304;10.576;2023-03-19T09:55:19;10.80;99.90
11122;DHT22;5615;49.304;10.576;2023-03-19T09:57:49;10.80;99.90
11122;DHT22;5615;49.304;10.576;2023-03-19T10:00:20;10.90;99.90
11122;DHT22;5615;49.304;10.576;2023-03-19T10:02:52;11.00;99.90
11122;DHT22;5615;49.304;10.576;2023-03-19T10:05:26;11.10;99.90
11122;DHT22;5615;49.304;10.576;2023-03-19T10:08:14;11.20;99.90
11122;DHT22;5615;49.304;10.576;2023-03-19T10:10:50;11.30;99.90
11122;DHT22;5615;49.304;10.576;2023-03-19T10:13:34;11.60;99.90
11122;DHT22;5615;49.304;10.576;2023-03-19T10:16:09;11.70;99.90
11122;DHT22;5615;49.304;10.576;2023-03-19T10:18:41;11.90;99.90
11122;DHT22;5615;49.304;10.576;2023-03-19T10:21:11;12.20;99.90
11122;DHT22;5615;49.304;10.576;2023-03-19T10:23:44;12.00;99.90
11122;DHT22;5615;49.304;10.576;2023-03-19T10:26:15;12.10;99.90
11122;DHT22;5615;49.304;10.576;2023-03-19T10:28:44;12.00;99.90
11122;DHT22;5615;49.304;10.576;2023-03-19T10:31:28;12.00;99.90
11122;DHT22;5615;49.304;10.576;2023-03-19T10:34:10;12.30;99.90
11122;DHT22;5615;49.304;10.576;2023-03-19T10:36:39;12.50;99.90
11122;DHT22;5615;49.304;10.576;2023-03-19T10:39:07;12.40;99.90
11122;DHT22;5615;49.304;10.576;2023-03-19T10:41:41;12.60;99.90
11122;DHT22;5615;49.304;10.576;2023-03-19T10:44:24;13.00;99.90
11122;DHT22;5615;49.304;10.576;2023-03-19T10:46:52;13.40;99.90
11122;DHT22;5615;49.304;10.576;2023-03-19T10:49:22;13.80;99.90
11122;DHT22;5615;49.304;10.576;2023-03-19T10:51:48;14.30;99.90
11122;DHT22;5615;49.304;10.576;2023-03-19T10:54:22;14.70;99.90
11122;DHT22;5615;49.304;10.576;2023-03-19T10:56:50;15.30;99.90
11122;DHT22;5615;49.304;10.576;2023-03-19T10:59:22;16.10;99.90
11122;DHT22;5615;49.304;10.576;2023-03-19T11:01:55;16.80;99.90
11122;DHT22;5615;49.304;10.576;2023-03-19T11:04:22;17.30;99.90
11122;DHT22;5615;49.304;10.576;2023-03-19T11:06:51;17.80;99.90
11122;DHT22;5615;49.304;10.576;2023-03-19T11:09:25;18.00;99.90
11122;DHT22;5615;49.304;10.576;2023-03-19T11:11:57;18.70;99.90
11122;DHT22;5615;49.304;10.576;2023-03-19T11:14:30;19.60;99.90
11122;DHT22;5615;49.304;10.576;2023-03-19T11:17:03;20.50;99.90
11122;DHT22;5615;49.304;10.576;2023-03-19T11:19:33;20.40;99.90
11122;DHT22;5615;49.304;10.576;2023-03-19T11:22:08;19.90;99.90
11122;DHT22;5615;49.304;10.576;2023-03-19T11:24:37;18.90;99.90
11122;DHT22;5615;49.304;10.576;2023-03-19T11:27:05;18.60;99.90
11122;DHT22;5615;49.304;10.576;2023-03-19T11:29:33;19.20;99.90
11122;DHT22;5615;49.304;10.576;2023-03-19T11:32:16;19.10;99.90
11122;DHT22;5615;49.304;10.576;2023-03-19T11:34:51;20.20;99.90
11122;DHT22;5615;49.304;10.576;2023-03-19T11:37:23;21.60;99.90
11122;DHT22;5615;49.304;10.576;2023-03-19T11:39:58;22.00;99.90
11122;DHT22;5615;49.304;10.576;2023-03-19T11:42:43;22.30;99.90
11122;DHT22;5615;49.304;10.576;2023-03-19T11:45:18;22.70;99.90
11122;DHT22;5615;49.304;10.576;2023-03-19T11:47:55;23.50;99.90
11122;DHT22;5615;49.304;10.576;2023-03-19T11:50:25;23.70;97.70
11122;DHT22;5615;49.304;10.576;2023-03-19T11:53:01;23.80;98.90
11122;DHT22;5615;49.304;10.576;2023-03-19T11:55:34;24.40;96.70
11122;DHT22;5615;49.304;10.576;2023-03-19T11:58:16;24.00;94.50
11122;DHT22;5615;49.304;10.576;2023-03-19T12:00:46;24.70;93.30
11122;DHT22;5615;49.304;10.576;2023-03-19T12:03:27;23.60;91.90
11122;DHT22;5615;49.304;10.576;2023-03-19T12:06:04;22.70;92.80
11122;DHT22;5615;49.304;10.576;2023-03-19T12:08:38;22.10;93.00
11122;DHT22;5615;49.304;10.576;2023-03-19T12:11:16;23.80;93.70
11122;DHT22;5615;49.304;10.576;2023-03-19T12:14:05;23.00;91.20
11122;DHT22;5615;49.304;10.576;2023-03-19T12:16:40;23.80;85.00
11122;DHT22;5615;49.304;10.576;2023-03-19T12:19:29;24.00;82.10
11122;DHT22;5615;49.304;10.576;2023-03-19T12:22:07;24.10;82.70
11122;DHT22;5615;49.304;10.576;2023-03-19T12:24:42;24.90;82.90
11122;DHT22;5615;49.304;10.576;2023-03-19T12:27:22;25.30;80.50
11122;DHT22;5615;49.304;10.576;2023-03-19T12:29:56;24.20;83.00
11122;DHT22;5615;49.304;10.576;2023-03-19T12:32:36;23.20;82.50
11122;DHT22;5615;49.304;10.576;2023-03-19T12:35:10;23.40;82.70
11122;DHT22;5615;49.304;10.576;2023-03-19T12:37:42;23.50;83.70
11122;DHT22;5615;49.304;10.576;2023-03-19T12:40:20;24.30;78.30
11122;DHT22;5615;49.304;10.576;2023-03-19T12:42:54;24.80;74.70
11122;DHT22;5615;49.304;10.576;2023-03-19T12:45:27;22.80;71.30
11122;DHT22;5615;49.304;10.576;2023-03-19T12:47:58;21.60;77.50
11122;DHT22;5615;49.304;10.576;2023-03-19T12:50:26;21.20;79.80
11122;DHT22;5615;49.304;10.576;2023-03-19T12:52:57;23.00;81.00
11122;DHT22;5615;49.304;10.576;2023-03-19T12:55:34;24.30;76.60
11122;DHT22;5615;49.304;10.576;2023-03-19T12:58:11;26.00;72.40
11122;DHT22;5615;49.304;10.576;2023-03-19T13:00:44;24.90;68.40
11122;DHT22;5615;49.304;10.576;2023-03-19T13:03:15;22.90;71.40
11122;DHT22;5615;49.304;10.576;2023-03-19T13:05:46;22.90;71.40
11122;DHT22;5615;49.304;10.576;2023-03-19T13:08:17;24.50;72.40
11122;DHT22;5615;49.304;10.576;2023-03-19T13:10:46;23.80;72.30
11122;DHT22;5615;49.304;10.576;2023-03-19T13:13:28;23.60;71.40
11122;DHT22;5615;49.304;10.576;2023-03-19T13:15:59;24.70;73.30
11122;DHT22;5615;49.304;10.576;2023-03-19T13:18:35;25.50;69.90
11122;DHT22;5615;49.304;10.576;2023-03-19T13:21:13;24.70;68.90
11122;DHT22;5615;49.304;10.576;2023-03-19T13:23:44;25.90;68.80
11122;DHT22;5615;49.304;10.576;2023-03-19T13:26:13;25.20;67.10
11122;DHT22;5615;49.304;10.576;2023-03-19T13:28:58;23.50;66.20
11122;DHT22;5615;49.304;10.576;2023-03-19T13:31:26;21.90;67.00
11122;DHT22;5615;49.304;10.576;2023-03-19T13:34:00;20.00;69.40
11122;DHT22;5615;49.304;10.576;2023-03-19T13:36:28;18.90;74.60
11122;DHT22;5615;49.304;10.576;2023-03-19T13:38:56;19.30;76.30
11122;DHT22;5615;49.304;10.576;2023-03-19T13:41:52;20.20;76.60
11122;DHT22;5615;49.304;10.576;2023-03-19T13:44:28;20.50;80.40
11122;DHT22;5615;49.304;10.576;2023-03-19T13:47:00;20.80;76.70
11122;DHT22;5615;49.304;10.576;2023-03-19T13:49:29;21.30;76.40
11122;DHT22;5615;49.304;10.576;2023-03-19T13:52:00;22.40;74.20
11122;DHT22;5615;49.304;10.576;2023-03-19T13:54:34;22.10;72.50
11122;DHT22;5615;49.304;10.576;2023-03-19T13:59:49;21.80;70.10
11122;DHT22;5615;49.304;10.576;2023-03-19T14:02:47;22.50;68.90
11122;DHT22;5615;49.304;10.576;2023-03-19T14:05:18;23.10;69.10
11122;DHT22;5615;49.304;10.576;2023-03-19T14:07:50;22.40;70.10
11122;DHT22;5615;49.304;10.576;2023-03-19T14:10:21;21.80;70.40
11122;DHT22;5615;49.304;10.576;2023-03-19T14:12:50;22.20;70.30
11122;DHT22;5615;49.304;10.576;2023-03-19T14:15:21;22.70;71.30
11122;DHT22;5615;49.304;10.576;2023-03-19T14:17:54;26.60;68.20
11122;DHT22;5615;49.304;10.576;2023-03-19T14:20:25;26.50;62.00
11122;DHT22;5615;49.304;10.576;2023-03-19T14:22:55;27.90;61.90
11122;DHT22;5615;49.304;10.576;2023-03-19T14:25:23;29.00;55.50
11122;DHT22;5615;49.304;10.576;2023-03-19T14:27:55;27.80;53.90
11122;DHT22;5615;49.304;10.576;2023-03-19T14:30:33;28.40;52.60
11122;DHT22;5615;49.304;10.576;2023-03-19T14:33:04;27.80;53.90
11122;DHT22;5615;49.304;10.576;2023-03-19T14:35:35;27.80;52.50
11122;DHT22;5615;49.304;10.576;2023-03-19T14:38:11;26.30;51.70
11122;DHT22;5615;49.304;10.576;2023-03-19T14:40:43;25.40;54.00
11122;DHT22;5615;49.304;10.576;2023-03-19T14:43:19;28.00;52.80
11122;DHT22;5615;49.304;10.576;2023-03-19T14:45:56;30.00;46.90
11122;DHT22;5615;49.304;10.576;2023-03-19T14:48:57;28.40;47.10
11122;DHT22;5615;49.304;10.576;2023-03-19T14:51:47;26.00;47.80
11122;DHT22;5615;49.304;10.576;2023-03-19T14:54:24;23.20;51.50
11122;DHT22;5615;49.304;10.576;2023-03-19T14:56:55;22.10;54.90
11122;DHT22;5615;49.304;10.576;2023-03-19T14:59:21;23.40;54.50
11122;DHT22;5615;49.304;10.576;2023-03-19T15:01:51;22.60;54.30
11122;DHT22;5615;49.304;10.576;2023-03-19T15:04:20;21.30;56.00
11122;DHT22;5615;49.304;10.576;2023-03-19T15:06:51;20.30;57.10
11122;DHT22;5615;49.304;10.576;2023-03-19T15:09:20;20.10;60.00
11122;DHT22;5615;49.304;10.576;2023-03-19T15:15:05;20.00;63.80
11122;DHT22;5615;49.304;10.576;2023-03-19T15:17:35;19.90;63.10
11122;DHT22;5615;49.304;10.576;2023-03-19T15:20:12;19.70;64.10
11122;DHT22;5615;49.304;10.576;2023-03-19T15:22:40;19.60;67.10
11122;DHT22;5615;49.304;10.576;2023-03-19T15:25:09;19.10;67.50
11122;DHT22;5615;49.304;10.576;2023-03-19T15:27:36;18.80;67.50
11122;DHT22;5615;49.304;10.576;2023-03-19T15:30:18;18.30;71.10
11122;DHT22;5615;49.304;10.576;2023-03-19T15:32:47;18.00;72.40
11122;DHT22;5615;49.304;10.576;2023-03-19T15:35:13;17.60;76.50
11122;DHT22;5615;49.304;10.576;2023-03-19T15:37:42;17.20;75.30
11122;DHT22;5615;49.304;10.576;2023-03-19T15:40:11;17.10;80.30
11122;DHT22;5615;49.304;10.576;2023-03-19T15:42:39;16.80;80.70
11122;DHT22;5615;49.304;10.576;2023-03-19T15:45:09;16.60;83.50
11122;DHT22;5615;49.304;10.576;2023-03-19T15:47:39;16.50;86.60
11122;DHT22;5615;49.304;10.576;2023-03-19T15:50:11;16.30;86.70
11122;DHT22;5615;49.304;10.576;2023-03-19T15:52:41;16.20;87.90
11122;DHT22;5615;49.304;10.576;2023-03-19T15:55:12;16.00;90.60
11122;DHT22;5615;49.304;10.576;2023-03-19T15:57:40;15.90;90.60
11122;DHT22;5615;49.304;10.576;2023-03-19T16:00:09;15.70;92.10
11122;DHT22;5615;49.304;10.576;2023-03-19T16:02:39;15.50;93.40